sensor_id;sensor_type;location;lat;lon;timestamp;temperature;humidity
15259;DHT22;34462;51.368;12.364;2024-01-27T00:00:28;5.50;99.90
15259;DHT22;34462;51.368;12.364;2024-01-27T00:02:56;5.40;99.90
15259;DHT22;34462;51.368;12.364;2024-01-27T00:05:26;5.40;99.90
15259;DHT22;34462;51.368;12.364;2024-01-27T00:07:57;5.50;99.90
15259;DHT22;34462;51.368;12.364;2024-01-27T00:10:27;5.40;99.90
15259;DHT22;34462;51.368;12.364;2024-01-27T00:12:57;5.40;99.90
15259;DHT22;34462;51.368;12.364;2024-01-27T00:15:25;5.40;99.90
15259;DHT22;34462;51.368;12.364;2024-01-27T00:17:53;5.40;99.90
15259;DHT22;34462;51.368;12.364;2024-01-27T00:20:24;5.30;99.90
15259;DHT22;34462;51.368;12.364;2024-01-27T00:22:56;5.40;99.90
15259;DHT22;34462;51.368;12.364;2024-01-27T00:25:24;5.30;99.90
15259;DHT22;34462;51.368;12.364;2024-01-27T00:27:53;5.30;99.90
15259;DHT22;34462;51.368;12.364;2024-01-27T00:30:26;5.40;99.90
15259;DHT22;34462;51.368;12.364;2024-01-27T00:32:54;5.30;99.90
15259;DHT22;34462;51.368;12.364;2024-01-27T00:35:24;5.30;99.90
15259;DHT22;34462;51.368;12.364;2024-01-27T00:37:56;5.30;99.90
15259;DHT22;34462;51.368;12.364;2024-01-27T00:40:24;5.40;99.90
15259;DHT22;34462;51.368;12.364;2024-01-27T00:42:52;5.30;99.90
15259;DHT22;34462;51.368;12.364;2024-01-27T00:45:23;5.30;99.90
15259;DHT22;34462;51.368;12.364;2024-01-27T00:47:53;5.30;99.90
15259;DHT22;34462;51.368;12.364;2024-01-27T00:50:21;5.30;99.90
15259;DHT22;34462;51.368;12.364;2024-01-27T00:52:49;5.30;99.90
15259;DHT22;34462;51.368;12.364;2024-01-27T00:55:21;5.30;99.90
15259;DHT22;34462;51.368;12.364;2024-01-27T00:57:49;5.30;99.90
15259;DHT22;34462;51.368;12.364;2024-01-27T01:00:18;5.30;99.90
15259;DHT22;34462;51.368;12.364;2024-01-27T01:02:48;5.30;99.90
15259;DHT22;34462;51.368;12.364;2024-01-27T01:05:16;5.30;99.90
15259;DHT22;34462;51.368;12.364;2024-01-27T01:07:44;5.30;99.90
15259;DHT22;34462;51.368;12.364;2024-01-27T01:10:12;5.20;99.90
15259;DHT22;34462;51.368;12.364;2024-01-27T01:12:41;5.20;99.90
15259;DHT22;34462;51.368;12.364;2024-01-27T01:15:09;5.20;99.90
15259;DHT22;34462;51.368;12.364;2024-01-27T01:17:38;5.20;99.90
15259;DHT22;34462;51.368;12.364;2024-01-27T01:20:08;5.20;99.90
15259;DHT22;34462;51.368;12.364;2024-01-27T01:22:37;5.20;99.90
15259;DHT22;34462;51.368;12.364;2024-01-27T01:25:06;5.20;99.90
15259;DHT22;34462;51.368;12.364;2024-01-27T01:27:35;5.20;99.90
15259;DHT22;34462;51.368;12.364;2024-01-27T01:30:03;5.20;99.90
15259;DHT22;34462;51.368;12.364;2024-01-27T01:32:32;5.20;99.90
15259;DHT22;34462;51.368;12.364;2024-01-27T01:35:01;5.20;99.90
15259;DHT22;34462;51.368;12.364;2024-01-27T01:37:30;5.30;99.90
15259;DHT22;34462;51.368;12.364;2024-01-27T01:39:59;5.20;99.90
15259;DHT22;34462;51.368;12.364;2024-01-27T01:42:27;5.30;99.90
15259;DHT22;34462;51.368;12.364;2024-01-27T01:44:56;5.20;99.90
15259;DHT22;34462;51.368;12.364;2024-01-27T01:47:24;5.10;99.90
15259;DHT22;34462;51.368;12.364;2024-01-27T01:49:53;5.10;99.90
15259;DHT22;34462;51.368;12.364;2024-01-27T01:52:22;5.00;99.90
15259;DHT22;34462;51.368;12.364;2024-01-27T01:54:52;5.00;99.90
15259;DHT22;34462;51.368;12.364;2024-01-27T01:57:20;5.00;99.90
15259;DHT22;34462;51.368;12.364;2024-01-27T01:59:48;5.00;99.90
15259;DHT22;34462;51.368;12.364;2024-01-27T02:02:17;5.00;99.90
15259;DHT22;34462;51.368;12.364;2024-01-27T02:04:45;4.90;99.90
15259;DHT22;34462;51.368;12.364;2024-01-27T02:07:14;4.80;99.90
15259;DHT22;34462;51.368;12.364;2024-01-27T02:09:42;4.70;99.90
15259;DHT22;34462;51.368;12.364;2024-01-27T02:12:13;4.80;99.90
15259;DHT22;34462;51.368;12.364;2024-01-27T02:14:41;4.70;99.90
15259;DHT22;34462;51.368;12.364;2024-01-27T02:17:14;4.60;99.90
15259;DHT22;34462;51.368;12.364;2024-01-27T02:19:42;4.70;99.90
15259;DHT22;34462;51.368;12.364;2024-01-27T02:22:11;4.70;99.90
15259;DHT22;34462;51.368;12.364;2024-01-27T02:24:40;4.70;99.90
15259;DHT22;34462;51.368;12.364;2024-01-27T02:27:09;4.60;99.90
15259;DHT22;34462;51.368;12.364;2024-01-27T02:29:37;4.60;99.90
15259;DHT22;34462;51.368;12.364;2024-01-27T02:32:06;4.60;99.90
15259;DHT22;34462;51.368;12.364;2024-01-27T02:34:34;4.60;99.90
15259;DHT22;34462;51.368;12.364;2024-01-27T02:37:02;4.60;99.90
15259;DHT22;34462;51.368;12.364;2024-01-27T02:39:32;4.60;99.90
15259;DHT22;34462;51.368;12.364;2024-01-27T02:42:02;4.50;99.90
15259;DHT22;34462;51.368;12.364;2024-01-27T02:44:30;4.40;99.90
15259;DHT22;34462;51.368;12.364;2024-01-27T02:46:59;4.40;99.90
15259;DHT22;34462;51.368;12.364;2024-01-27T02:49:27;4.30;99.90
15259;DHT22;34462;51.368;12.364;2024-01-27T02:51:56;4.20;99.90
15259;DHT22;34462;51.368;12.364;2024-01-27T02:54:24;4.20;99.90
15259;DHT22;34462;51.368;12.364;2024-01-27T02:56:54;4.20;99.90
15259;DHT22;34462;51.368;12.364;2024-01-27T02:59:24;4.20;99.90
15259;DHT22;34462;51.368;12.364;2024-01-27T03:01:52;4.40;99.90
15259;DHT22;34462;51.368;12.364;2024-01-27T03:04:20;4.30;99.90
15259;DHT22;34462;51.368;12.364;2024-01-27T03:06:49;4.40;99.90
15259;DHT22;34462;51.368;12.364;2024-01-27T03:09:17;4.40;99.90
15259;DHT22;34462;51.368;12.364;2024-01-27T03:11:45;4.50;99.90
15259;DHT22;34462;51.368;12.364;2024-01-27T03:14:14;4.50;99.90
15259;DHT22;34462;51.368;12.364;2024-01-27T03:16:44;4.50;99.90
15259;DHT22;34462;51.368;12.364;2024-01-27T03:19:12;4.50;99.90
15259;DHT22;34462;51.368;12.364;2024-01-27T03:21:40;4.60;99.90
15259;DHT22;34462;51.368;12.364;2024-01-27T03:24:11;4.50;99.90
15259;DHT22;34462;51.368;12.364;2024-01-27T03:26:40;4.50;99.90
15259;DHT22;34462;51.368;12.364;2024-01-27T03:29:08;4.50;99.90
15259;DHT22;34462;51.368;12.364;2024-01-27T03:31:36;4.60;99.90
15259;DHT22;34462;51.368;12.364;2024-01-27T03:34:06;4.50;99.90
15259;DHT22;34462;51.368;12.364;2024-01-27T03:36:34;4.40;99.90
15259;DHT22;34462;51.368;12.364;2024-01-27T03:39:02;4.40;99.90
15259;DHT22;34462;51.368;12.364;2024-01-27T03:41:31;4.30;99.90
15259;DHT22;34462;51.368;12.364;2024-01-27T03:43:59;4.30;99.90
15259;DHT22;34462;51.368;12.364;2024-01-27T03:46:27;4.20;99.90
15259;DHT22;34462;51.368;12.364;2024-01-27T03:48:55;4.00;99.90
15259;DHT22;34462;51.368;12.364;2024-01-27T03:51:25;4.00;99.90
15259;DHT22;34462;51.368;12.364;2024-01-27T03:53:54;3.90;99.90
15259;DHT22;34462;51.368;12.364;2024-01-27T03:56:22;3.80;99.90
15259;DHT22;34462;51.368;12.364;2024-01-27T03:58:50;3.90;99.90
15259;DHT22;34462;51.368;12.364;2024-01-27T04:01:18;3.90;99.90
15259;DHT22;34462;51.368;12.364;2024-01-27T04:03:46;3.70;99.90
15259;DHT22;34462;51.368;12.364;2024-01-27T04:06:15;3.70;99.90
15259;DHT22;34462;51.368;12.364;2024-01-27T04:08:45;3.80;99.90
15259;DHT22;34462;51.368;12.364;2024-01-27T04:11:19;3.80;99.90
15259;DHT22;34462;51.368;12.364;2024-01-27T04:13:49;3.80;99.90
15259;DHT22;34462;51.368;12.364;2024-01-27T04:16:18;3.80;99.90
15259;DHT22;34462;51.368;12.364;2024-01-27T04:18:46;3.90;99.90
15259;DHT22;34462;51.368;12.364;2024-01-27T04:21:15;4.00;99.90
15259;DHT22;34462;51.368;12.364;2024-01-27T04:23:45;4.00;99.90
15259;DHT22;34462;51.368;12.364;2024-01-27T04:26:13;4.00;99.90
15259;DHT22;34462;51.368;12.364;2024-01-27T04:28:41;4.00;99.90
15259;DHT22;34462;51.368;12.364;2024-01-27T04:31:10;4.00;99.90
15259;DHT22;34462;51.368;12.364;2024-01-27T04:33:38;3.90;99.90
15259;DHT22;34462;51.368;12.364;2024-01-27T04:36:07;3.90;99.90
15259;DHT22;34462;51.368;12.364;2024-01-27T04:38:36;3.90;99.90
15259;DHT22;34462;51.368;12.364;2024-01-27T04:41:06;3.90;99.90
15259;DHT22;34462;51.368;12.364;2024-01-27T04:43:34;3.90;99.90
15259;DHT22;34462;51.368;12.364;2024-01-27T04:46:02;3.90;99.90
15259;DHT22;34462;51.368;12.364;2024-01-27T04:48:31;3.90;99.90
15259;DHT22;34462;51.368;12.364;2024-01-27T04:50:59;3.90;99.90
15259;DHT22;34462;51.368;12.364;2024-01-27T04:53:27;3.90;99.90
15259;DHT22;34462;51.368;12.364;2024-01-27T04:55:55;3.90;99.90
15259;DHT22;34462;51.368;12.364;2024-01-27T04:58:25;4.00;99.90
15259;DHT22;34462;51.368;12.364;2024-01-27T05:00:53;4.00;99.90
15259;DHT22;34462;51.368;12.364;2024-01-27T05:03:21;4.00;99.90
15259;DHT22;34462;51.368;12.364;2024-01-27T05:05:50;4.00;99.90
15259;DHT22;34462;51.368;12.364;2024-01-27T05:08:18;4.00;99.90
15259;DHT22;34462;51.368;12.364;2024-01-27T05:10:46;4.00;99.90
15259;DHT22;34462;51.368;12.364;2024-01-27T05:13:15;3.90;99.90
15259;DHT22;34462;51.368;12.364;2024-01-27T05:15:44;4.00;99.90
15259;DHT22;34462;51.368;12.364;2024-01-27T05:18:13;3.80;99.90
15259;DHT22;34462;51.368;12.364;2024-01-27T05:20:41;3.90;99.90
15259;DHT22;34462;51.368;12.364;2024-01-27T05:23:09;3.90;99.90
15259;DHT22;34462;51.368;12.364;2024-01-27T05:25:38;3.80;99.90
15259;DHT22;34462;51.368;12.364;2024-01-27T05:28:06;3.90;99.90
15259;DHT22;34462;51.368;12.364;2024-01-27T05:30:34;4.00;99.90
15259;DHT22;34462;51.368;12.364;2024-01-27T05:33:07;4.10;99.90
15259;DHT22;34462;51.368;12.364;2024-01-27T05:35:36;4.10;99.90
15259;DHT22;34462;51.368;12.364;2024-01-27T05:38:07;4.20;99.90
15259;DHT22;34462;51.368;12.364;2024-01-27T05:40:36;4.30;99.90
15259;DHT22;34462;51.368;12.364;2024-01-27T05:43:08;4.30;99.90
15259;DHT22;34462;51.368;12.364;2024-01-27T05:45:36;4.30;99.90
15259;DHT22;34462;51.368;12.364;2024-01-27T05:48:07;4.40;99.90
15259;DHT22;34462;51.368;12.364;2024-01-27T05:50:35;4.40;99.90
15259;DHT22;34462;51.368;12.364;2024-01-27T05:53:04;4.30;99.90
15259;DHT22;34462;51.368;12.364;2024-01-27T05:55:32;4.40;99.90
15259;DHT22;34462;51.368;12.364;2024-01-27T05:58:01;4.40;99.90
15259;DHT22;34462;51.368;12.364;2024-01-27T06:00:29;4.40;99.90
15259;DHT22;34462;51.368;12.364;2024-01-27T06:02:58;4.40;99.90
15259;DHT22;34462;51.368;12.364;2024-01-27T06:05:28;4.30;99.90
15259;DHT22;34462;51.368;12.364;2024-01-27T06:07:56;4.20;99.90
15259;DHT22;34462;51.368;12.364;2024-01-27T06:10:24;4.30;99.90
15259;DHT22;34462;51.368;12.364;2024-01-27T06:12:52;4.30;99.90
15259;DHT22;34462;51.368;12.364;2024-01-27T06:15:21;4.40;99.90
15259;DHT22;34462;51.368;12.364;2024-01-27T06:17:50;4.40;99.90
15259;DHT22;34462;51.368;12.364;2024-01-27T06:20:18;4.40;99.90
15259;DHT22;34462;51.368;12.364;2024-01-27T06:22:48;4.50;99.90
15259;DHT22;34462;51.368;12.364;2024-01-27T06:25:16;4.50;99.90
15259;DHT22;34462;51.368;12.364;2024-01-27T06:27:44;4.60;99.90
15259;DHT22;34462;51.368;12.364;2024-01-27T06:30:13;4.60;99.90
15259;DHT22;34462;51.368;12.364;2024-01-27T06:32:43;4.60;99.90
15259;DHT22;34462;51.368;12.364;2024-01-27T06:35:11;4.70;99.90
15259;DHT22;34462;51.368;12.364;2024-01-27T06:37:39;4.70;99.90
15259;DHT22;34462;51.368;12.364;2024-01-27T06:40:10;4.70;99.90
15259;DHT22;34462;51.368;12.364;2024-01-27T06:42:39;4.60;99.90
15259;DHT22;34462;51.368;12.364;2024-01-27T06:45:08;4.50;99.90
15259;DHT22;34462;51.368;12.364;2024-01-27T06:47:36;4.40;99.90
15259;DHT22;34462;51.368;12.364;2024-01-27T06:50:05;4.30;99.90
15259;DHT22;34462;51.368;12.364;2024-01-27T06:52:34;4.20;99.90
15259;DHT22;34462;51.368;12.364;2024-01-27T06:55:04;4.10;99.90
15259;DHT22;34462;51.368;12.364;2024-01-27T06:57:35;4.10;99.90
15259;DHT22;34462;51.368;12.364;2024-01-27T07:00:04;4.00;99.90
15259;DHT22;34462;51.368;12.364;2024-01-27T07:02:33;4.00;99.90
15259;DHT22;34462;51.368;12.364;2024-01-27T07:05:02;4.10;99.90
15259;DHT22;34462;51.368;12.364;2024-01-27T07:07:35;4.00;99.90
15259;DHT22;34462;51.368;12.364;2024-01-27T07:10:04;4.10;99.90
15259;DHT22;34462;51.368;12.364;2024-01-27T07:12:36;4.20;99.90
15259;DHT22;34462;51.368;12.364;2024-01-27T07:15:05;4.30;99.90
15259;DHT22;34462;51.368;12.364;2024-01-27T07:17:34;4.30;99.90
15259;DHT22;34462;51.368;12.364;2024-01-27T07:20:04;4.30;99.90
15259;DHT22;34462;51.368;12.364;2024-01-27T07:22:34;4.30;99.90
15259;DHT22;34462;51.368;12.364;2024-01-27T07:25:02;4.30;99.90
15259;DHT22;34462;51.368;12.364;2024-01-27T07:27:31;4.40;99.90
15259;DHT22;34462;51.368;12.364;2024-01-27T07:30:02;4.50;99.90
15259;DHT22;34462;51.368;12.364;2024-01-27T07:32:33;4.60;99.90
15259;DHT22;34462;51.368;12.364;2024-01-27T07:35:02;4.50;99.90
15259;DHT22;34462;51.368;12.364;2024-01-27T07:37:32;4.60;99.90
15259;DHT22;34462;51.368;12.364;2024-01-27T07:40:01;4.60;99.90
15259;DHT22;34462;51.368;12.364;2024-01-27T07:42:29;4.60;99.90
15259;DHT22;34462;51.368;12.364;2024-01-27T07:44:57;4.60;99.90
15259;DHT22;34462;51.368;12.364;2024-01-27T07:47:27;4.70;99.90
15259;DHT22;34462;51.368;12.364;2024-01-27T07:49:55;4.60;99.90
15259;DHT22;34462;51.368;12.364;2024-01-27T07:52:23;4.60;99.90
15259;DHT22;34462;51.368;12.364;2024-01-27T07:54:52;4.70;99.90
15259;DHT22;34462;51.368;12.364;2024-01-27T07:57:22;4.70;99.90
15259;DHT22;34462;51.368;12.364;2024-01-27T07:59:50;4.80;99.90
15259;DHT22;34462;51.368;12.364;2024-01-27T08:02:18;4.80;99.90
15259;DHT22;34462;51.368;12.364;2024-01-27T08:04:49;4.80;99.90
15259;DHT22;34462;51.368;12.364;2024-01-27T08:07:17;4.70;99.90
15259;DHT22;34462;51.368;12.364;2024-01-27T08:09:47;4.70;99.90
15259;DHT22;34462;51.368;12.364;2024-01-27T08:12:16;4.70;99.90
15259;DHT22;34462;51.368;12.364;2024-01-27T08:14:47;4.70;99.90
15259;DHT22;34462;51.368;12.364;2024-01-27T08:17:16;4.70;99.90
15259;DHT22;34462;51.368;12.364;2024-01-27T08:19:44;4.60;99.90
15259;DHT22;34462;51.368;12.364;2024-01-27T08:22:14;4.70;99.90
15259;DHT22;34462;51.368;12.364;2024-01-27T08:24:42;4.70;99.90
15259;DHT22;34462;51.368;12.364;2024-01-27T08:27:14;4.70;99.90
15259;DHT22;34462;51.368;12.364;2024-01-27T08:29:44;4.70;99.90
15259;DHT22;34462;51.368;12.364;2024-01-27T08:32:15;4.80;99.90
15259;DHT22;34462;51.368;12.364;2024-01-27T08:34:50;4.80;99.90
15259;DHT22;34462;51.368;12.364;2024-01-27T08:37:20;4.90;99.90
15259;DHT22;34462;51.368;12.364;2024-01-27T08:39:50;5.10;99.90
15259;DHT22;34462;51.368;12.364;2024-01-27T08:42:18;5.10;99.90
15259;DHT22;34462;51.368;12.364;2024-01-27T08:44:48;5.10;99.90
15259;DHT22;34462;51.368;12.364;2024-01-27T08:47:16;5.20;99.90
15259;DHT22;34462;51.368;12.364;2024-01-27T08:49:44;5.30;99.90
15259;DHT22;34462;51.368;12.364;2024-01-27T08:52:13;5.30;99.90
15259;DHT22;34462;51.368;12.364;2024-01-27T08:54:42;5.40;99.90
15259;DHT22;34462;51.368;12.364;2024-01-27T08:57:12;5.40;99.90
15259;DHT22;34462;51.368;12.364;2024-01-27T08:59:40;5.50;99.90
15259;DHT22;34462;51.368;12.364;2024-01-27T09:02:09;5.50;99.90
15259;DHT22;34462;51.368;12.364;2024-01-27T09:04:37;5.60;99.90
15259;DHT22;34462;51.368;12.364;2024-01-27T09:07:05;5.60;99.90
15259;DHT22;34462;51.368;12.364;2024-01-27T09:09:34;5.70;99.90
15259;DHT22;34462;51.368;12.364;2024-01-27T09:12:04;5.80;99.90
15259;DHT22;34462;51.368;12.364;2024-01-27T09:14:32;5.80;99.90
15259;DHT22;34462;51.368;12.364;2024-01-27T09:17:01;5.80;99.90
15259;DHT22;34462;51.368;12.364;2024-01-27T09:19:30;5.90;99.90
15259;DHT22;34462;51.368;12.364;2024-01-27T09:21:59;5.90;99.90
15259;DHT22;34462;51.368;12.364;2024-01-27T09:24:27;5.90;99.90
15259;DHT22;34462;51.368;12.364;2024-01-27T09:26:55;5.90;99.90
15259;DHT22;34462;51.368;12.364;2024-01-27T09:29:25;5.80;99.90
15259;DHT22;34462;51.368;12.364;2024-01-27T09:31:53;6.00;99.90
15259;DHT22;34462;51.368;12.364;2024-01-27T09:34:21;6.20;99.90
15259;DHT22;34462;51.368;12.364;2024-01-27T09:36:50;6.40;99.90
15259;DHT22;34462;51.368;12.364;2024-01-27T09:39:19;6.30;99.90
15259;DHT22;34462;51.368;12.364;2024-01-27T09:41:48;6.30;99.90
15259;DHT22;34462;51.368;12.364;2024-01-27T09:44:18;6.40;99.90
15259;DHT22;34462;51.368;12.364;2024-01-27T09:46:48;6.50;99.90
15259;DHT22;34462;51.368;12.364;2024-01-27T09:49:16;6.70;99.90
15259;DHT22;34462;51.368;12.364;2024-01-27T09:51:45;6.80;99.90
15259;DHT22;34462;51.368;12.364;2024-01-27T09:54:14;6.80;99.90
15259;DHT22;34462;51.368;12.364;2024-01-27T09:56:46;6.70;99.90
15259;DHT22;34462;51.368;12.364;2024-01-27T09:59:16;6.70;99.90
15259;DHT22;34462;51.368;12.364;2024-01-27T10:01:45;6.70;99.90
15259;DHT22;34462;51.368;12.364;2024-01-27T10:04:16;6.70;99.90
15259;DHT22;34462;51.368;12.364;2024-01-27T10:06:47;6.70;99.90
15259;DHT22;34462;51.368;12.364;2024-01-27T10:09:17;6.80;99.90
15259;DHT22;34462;51.368;12.364;2024-01-27T10:11:46;6.80;99.90
15259;DHT22;34462;51.368;12.364;2024-01-27T10:14:15;6.90;99.90
15259;DHT22;34462;51.368;12.364;2024-01-27T10:16:45;6.90;99.90
15259;DHT22;34462;51.368;12.364;2024-01-27T10:19:17;7.00;99.90
15259;DHT22;34462;51.368;12.364;2024-01-27T10:21:48;7.00;99.90
15259;DHT22;34462;51.368;12.364;2024-01-27T10:24:27;7.00;99.90
15259;DHT22;34462;51.368;12.364;2024-01-27T10:26:59;7.00;99.90
15259;DHT22;34462;51.368;12.364;2024-01-27T10:29:28;7.00;99.90
15259;DHT22;34462;51.368;12.364;2024-01-27T10:32:07;7.00;99.90
15259;DHT22;34462;51.368;12.364;2024-01-27T10:34:37;7.00;99.90
15259;DHT22;34462;51.368;12.364;2024-01-27T10:37:06;7.00;99.90
15259;DHT22;34462;51.368;12.364;2024-01-27T10:39:34;7.00;99.90
15259;DHT22;34462;51.368;12.364;2024-01-27T10:42:03;7.00;99.90
15259;DHT22;34462;51.368;12.364;2024-01-27T10:44:36;7.10;99.90
15259;DHT22;34462;51.368;12.364;2024-01-27T10:47:09;7.20;99.90
15259;DHT22;34462;51.368;12.364;2024-01-27T10:49:48;7.20;99.90
15259;DHT22;34462;51.368;12.364;2024-01-27T10:52:18;7.30;99.90
15259;DHT22;34462;51.368;12.364;2024-01-27T10:54:58;7.20;99.90
15259;DHT22;34462;51.368;12.364;2024-01-27T10:57:30;7.20;99.90
15259;DHT22;34462;51.368;12.364;2024-01-27T11:00:00;7.30;99.90
15259;DHT22;34462;51.368;12.364;2024-01-27T11:02:32;7.50;99.90
15259;DHT22;34462;51.368;12.364;2024-01-27T11:05:07;7.60;99.90
15259;DHT22;34462;51.368;12.364;2024-01-27T11:07:38;7.70;99.90
15259;DHT22;34462;51.368;12.364;2024-01-27T11:10:09;7.70;99.90
15259;DHT22;34462;51.368;12.364;2024-01-27T11:12:38;7.80;99.90
15259;DHT22;34462;51.368;12.364;2024-01-27T11:15:07;7.80;99.90
15259;DHT22;34462;51.368;12.364;2024-01-27T11:17:39;7.70;99.90
15259;DHT22;34462;51.368;12.364;2024-01-27T11:20:11;7.70;99.90
15259;DHT22;34462;51.368;12.364;2024-01-27T11:22:40;7.70;99.90
15259;DHT22;34462;51.368;12.364;2024-01-27T11:25:15;7.70;99.90
15259;DHT22;34462;51.368;12.364;2024-01-27T11:27:46;7.60;99.90
15259;DHT22;34462;51.368;12.364;2024-01-27T11:30:26;7.50;99.90
15259;DHT22;34462;51.368;12.364;2024-01-27T11:32:56;7.50;99.90
15259;DHT22;34462;51.368;12.364;2024-01-27T11:35:27;7.50;99.90
15259;DHT22;34462;51.368;12.364;2024-01-27T11:37:56;7.50;99.90
15259;DHT22;34462;51.368;12.364;2024-01-27T11:40:24;7.50;99.90
15259;DHT22;34462;51.368;12.364;2024-01-27T11:42:55;7.50;99.90
15259;DHT22;34462;51.368;12.364;2024-01-27T11:45:24;7.60;99.90
15259;DHT22;34462;51.368;12.364;2024-01-27T11:47:55;7.60;99.90
15259;DHT22;34462;51.368;12.364;2024-01-27T11:50:24;7.70;99.90
15259;DHT22;34462;51.368;12.364;2024-01-27T11:52:54;7.80;99.90
15259;DHT22;34462;51.368;12.364;2024-01-27T11:55:22;7.80;99.90
15259;DHT22;34462;51.368;12.364;2024-01-27T11:57:50;7.70;99.90
15259;DHT22;34462;51.368;12.364;2024-01-27T12:00:19;7.70;99.90
15259;DHT22;34462;51.368;12.364;2024-01-27T12:02:50;7.80;99.90
15259;DHT22;34462;51.368;12.364;2024-01-27T12:05:19;7.70;99.90
15259;DHT22;34462;51.368;12.364;2024-01-27T12:07:48;7.80;99.90
15259;DHT22;34462;51.368;12.364;2024-01-27T12:10:18;7.60;99.90
15259;DHT22;34462;51.368;12.364;2024-01-27T12:12:46;7.60;99.90
15259;DHT22;34462;51.368;12.364;2024-01-27T12:15:15;7.70;99.90
15259;DHT22;34462;51.368;12.364;2024-01-27T12:17:50;7.80;99.90
15259;DHT22;34462;51.368;12.364;2024-01-27T12:20:19;7.80;99.90
15259;DHT22;34462;51.368;12.364;2024-01-27T12:22:47;7.80;99.90
15259;DHT22;34462;51.368;12.364;2024-01-27T12:25:21;7.80;99.90
15259;DHT22;34462;51.368;12.364;2024-01-27T12:27:49;7.80;99.90
15259;DHT22;34462;51.368;12.364;2024-01-27T12:30:17;8.00;99.90
15259;DHT22;34462;51.368;12.364;2024-01-27T12:32:45;8.00;99.90
15259;DHT22;34462;51.368;12.364;2024-01-27T12:35:14;8.00;99.90
15259;DHT22;34462;51.368;12.364;2024-01-27T12:37:43;8.10;99.90
15259;DHT22;34462;51.368;12.364;2024-01-27T12:40:22;8.10;99.90
15259;DHT22;34462;51.368;12.364;2024-01-27T12:42:51;8.10;99.90
15259;DHT22;34462;51.368;12.364;2024-01-27T12:45:19;8.10;99.90
15259;DHT22;34462;51.368;12.364;2024-01-27T12:47:48;8.10;99.90
15259;DHT22;34462;51.368;12.364;2024-01-27T12:50:17;8.10;99.90
15259;DHT22;34462;51.368;12.364;2024-01-27T12:52:45;8.10;99.90
15259;DHT22;34462;51.368;12.364;2024-01-27T12:55:14;8.20;99.90
15259;DHT22;34462;51.368;12.364;2024-01-27T12:57:44;8.10;99.90
15259;DHT22;34462;51.368;12.364;2024-01-27T13:00:14;8.20;99.90
15259;DHT22;34462;51.368;12.364;2024-01-27T13:02:44;8.20;99.90
15259;DHT22;34462;51.368;12.364;2024-01-27T13:05:12;8.20;99.90
15259;DHT22;34462;51.368;12.364;2024-01-27T13:07:41;8.20;99.90
15259;DHT22;34462;51.368;12.364;2024-01-27T13:10:11;8.20;99.90
15259;DHT22;34462;51.368;12.364;2024-01-27T13:12:40;8.30;99.90
15259;DHT22;34462;51.368;12.364;2024-01-27T13:15:09;8.20;99.90
15259;DHT22;34462;51.368;12.364;2024-01-27T13:17:38;8.20;99.90
15259;DHT22;34462;51.368;12.364;2024-01-27T13:20:08;8.20;99.90
15259;DHT22;34462;51.368;12.364;2024-01-27T13:22:37;8.20;99.90
15259;DHT22;34462;51.368;12.364;2024-01-27T13:25:06;8.20;99.90
15259;DHT22;34462;51.368;12.364;2024-01-27T13:27:35;8.10;99.90
15259;DHT22;34462;51.368;12.364;2024-01-27T13:30:04;8.10;99.90
15259;DHT22;34462;51.368;12.364;2024-01-27T13:32:35;8.20;99.90
15259;DHT22;34462;51.368;12.364;2024-01-27T13:35:04;8.20;99.90
15259;DHT22;34462;51.368;12.364;2024-01-27T13:37:34;8.20;99.90
15259;DHT22;34462;51.368;12.364;2024-01-27T13:40:03;8.10;99.90
15259;DHT22;34462;51.368;12.364;2024-01-27T13:42:33;8.10;99.90
15259;DHT22;34462;51.368;12.364;2024-01-27T13:45:01;8.20;99.90
15259;DHT22;34462;51.368;12.364;2024-01-27T13:47:30;8.10;99.90
15259;DHT22;34462;51.368;12.364;2024-01-27T13:50:00;8.10;99.90
15259;DHT22;34462;51.368;12.364;2024-01-27T13:52:30;8.20;99.90
15259;DHT22;34462;51.368;12.364;2024-01-27T13:54:58;8.10;99.90
15259;DHT22;34462;51.368;12.364;2024-01-27T13:57:27;8.10;99.90
15259;DHT22;34462;51.368;12.364;2024-01-27T13:59:56;8.00;99.90
15259;DHT22;34462;51.368;12.364;2024-01-27T14:02:24;8.00;99.90
15259;DHT22;34462;51.368;12.364;2024-01-27T14:04:53;8.00;99.90
15259;DHT22;34462;51.368;12.364;2024-01-27T14:07:22;7.90;99.90
15259;DHT22;34462;51.368;12.364;2024-01-27T14:09:51;7.90;99.90
15259;DHT22;34462;51.368;12.364;2024-01-27T14:12:19;7.90;99.90
15259;DHT22;34462;51.368;12.364;2024-01-27T14:14:49;7.80;99.90
15259;DHT22;34462;51.368;12.364;2024-01-27T14:17:17;7.80;99.90
15259;DHT22;34462;51.368;12.364;2024-01-27T14:19:47;7.70;99.90
15259;DHT22;34462;51.368;12.364;2024-01-27T14:22:15;7.70;99.90
15259;DHT22;34462;51.368;12.364;2024-01-27T14:24:45;7.70;99.90
15259;DHT22;34462;51.368;12.364;2024-01-27T14:27:14;7.60;99.90
15259;DHT22;34462;51.368;12.364;2024-01-27T14:29:44;7.70;99.90
15259;DHT22;34462;51.368;12.364;2024-01-27T14:32:12;7.60;99.90
15259;DHT22;34462;51.368;12.364;2024-01-27T14:34:40;7.60;99.90
15259;DHT22;34462;51.368;12.364;2024-01-27T14:37:09;7.50;99.90
15259;DHT22;34462;51.368;12.364;2024-01-27T14:39:37;7.60;99.90
15259;DHT22;34462;51.368;12.364;2024-01-27T14:42:09;7.50;99.90
15259;DHT22;34462;51.368;12.364;2024-01-27T14:44:38;7.60;99.90
15259;DHT22;34462;51.368;12.364;2024-01-27T14:47:08;7.50;99.90
15259;DHT22;34462;51.368;12.364;2024-01-27T14:49:37;7.40;99.90
15259;DHT22;34462;51.368;12.364;2024-01-27T14:52:06;7.40;99.90
15259;DHT22;34462;51.368;12.364;2024-01-27T14:54:34;7.40;99.90
15259;DHT22;34462;51.368;12.364;2024-01-27T14:57:04;7.30;99.90
15259;DHT22;34462;51.368;12.364;2024-01-27T14:59:37;7.20;99.90
15259;DHT22;34462;51.368;12.364;2024-01-27T15:02:06;7.30;99.90
15259;DHT22;34462;51.368;12.364;2024-01-27T15:04:36;7.20;99.90
15259;DHT22;34462;51.368;12.364;2024-01-27T15:07:05;7.10;99.90
15259;DHT22;34462;51.368;12.364;2024-01-27T15:09:33;7.10;99.90
15259;DHT22;34462;51.368;12.364;2024-01-27T15:12:01;7.00;99.90
15259;DHT22;34462;51.368;12.364;2024-01-27T15:14:30;6.80;99.90
15259;DHT22;34462;51.368;12.364;2024-01-27T15:17:01;6.80;99.90
15259;DHT22;34462;51.368;12.364;2024-01-27T15:19:29;6.70;99.90
15259;DHT22;34462;51.368;12.364;2024-01-27T15:27:24;6.40;99.90
15259;DHT22;34462;51.368;12.364;2024-01-27T15:29:52;6.30;99.90
15259;DHT22;34462;51.368;12.364;2024-01-27T15:32:24;6.30;99.90
15259;DHT22;34462;51.368;12.364;2024-01-27T15:34:53;6.40;99.90
15259;DHT22;34462;51.368;12.364;2024-01-27T15:37:22;6.40;99.90
15259;DHT22;34462;51.368;12.364;2024-01-27T15:39:50;6.40;99.90
15259;DHT22;34462;51.368;12.364;2024-01-27T15:42:19;6.30;99.90
15259;DHT22;34462;51.368;12.364;2024-01-27T15:44:47;6.20;99.90
15259;DHT22;34462;51.368;12.364;2024-01-27T15:47:15;6.00;99.90